createdAt,value
2023-07-14T00:00:49.492Z,50.71
2023-07-14T00:03:19.101Z,52.98
2023-07-14T00:05:48.332Z,51.28
2023-07-14T00:08:20.726Z,50.58
2023-07-14T00:10:58.503Z,50.11
2023-07-14T00:13:31.933Z,52.18
2023-07-14T00:16:04.413Z,54.68
2023-07-14T00:18:35.620Z,54.16
2023-07-14T00:21:05.032Z,51.48
2023-07-14T00:23:34.147Z,52.51
2023-07-14T00:26:03.513Z,51.07
2023-07-14T00:28:32.855Z,52.20
2023-07-14T00:31:01.858Z,50.47
2023-07-14T00:33:31.743Z,49.56
2023-07-14T00:36:02.845Z,52.14
2023-07-14T00:38:35.121Z,56.52
2023-07-14T00:41:10.251Z,54.01
2023-07-14T00:43:39.881Z,56.69
2023-07-14T00:46:24.130Z,52.17
2023-07-14T00:48:57.440Z,50.28
2023-07-14T00:51:31.396Z,52.83
2023-07-14T00:54:00.452Z,51.55
2023-07-14T00:56:46.980Z,50.49
2023-07-14T00:59:21.067Z,50.66
2023-07-14T01:02:25.442Z,51.03
2023-07-14T01:05:09.840Z,50.00
2023-07-14T01:07:45.614Z,50.55
2023-07-14T01:10:21.007Z,49.39
2023-07-14T01:12:54.885Z,48.15
2023-07-14T01:15:24.530Z,52.30
2023-07-14T01:17:55.534Z,50.49
2023-07-14T01:20:24.836Z,51.22
2023-07-14T01:23:26.265Z,50.76
2023-07-14T01:26:25.392Z,50.00
2023-07-14T01:29:18.127Z,50.44
2023-07-14T01:36:30.759Z,52.64
2023-07-14T01:46:33.985Z,49.64
2023-07-14T01:50:06.046Z,51.40
2023-07-14T01:52:44.389Z,52.91
2023-07-14T01:56:26.573Z,57.02
2023-07-14T02:10:40.680Z,53.79
2023-07-14T02:14:30.683Z,56.32
2023-07-14T02:17:31.514Z,57.48
2023-07-14T02:20:51.378Z,57.77
2023-07-14T02:24:16.358Z,60.86
2023-07-14T02:27:30.074Z,63.03
2023-07-14T02:30:55.725Z,64.09
2023-07-14T02:38:50.261Z,63.68
2023-07-14T02:48:42.126Z,67.64
2023-07-14T02:52:06.925Z,70.62
2023-07-14T02:58:24.197Z,78.11
2023-07-14T03:00:39.502Z,71.58
2023-07-14T03:01:13.668Z,78.46
2023-07-14T03:07:48.080Z,76.51
2023-07-14T03:17:29.149Z,75.40
2023-07-14T03:23:02.668Z,75.80
2023-07-14T03:23:47.847Z,73.13
2023-07-14T03:27:05.283Z,71.85
2023-07-14T03:30:25.365Z,72.52
2023-07-14T03:35:08.923Z,73.96
2023-07-14T03:40:27.618Z,72.17
2023-07-14T03:43:23.833Z,75.72
2023-07-14T03:46:30.699Z,75.87
2023-07-14T03:49:55.846Z,75.91
2023-07-14T03:52:46.111Z,82.87
2023-07-14T03:55:59.995Z,80.29
2023-07-14T03:58:30.121Z,80.56
2023-07-14T04:01:09.324Z,78.84
2023-07-14T04:03:44.175Z,81.18
2023-07-14T04:06:29.908Z,82.45
2023-07-14T04:09:06.116Z,87.36
2023-07-14T04:11:41.170Z,92.28
2023-07-14T04:14:22.328Z,92.70
2023-07-14T04:17:00.772Z,91.69
2023-07-14T04:20:27.263Z,90.16
2023-07-14T04:22:58.795Z,90.56
2023-07-14T04:25:43.334Z,90.35
2023-07-14T04:28:14.831Z,93.48
2023-07-14T04:30:57.411Z,97.96
2023-07-14T04:33:33.652Z,98.97
2023-07-14T04:36:18.544Z,100.00
2023-07-14T04:39:07.557Z,100.00
2023-07-14T04:41:39.797Z,100.00
2023-07-14T04:44:15.557Z,100.00
2023-07-14T04:46:51.544Z,100.00
2023-07-14T04:49:29.776Z,100.00
2023-07-14T04:52:09.130Z,100.00
2023-07-14T04:54:49.673Z,100.00
2023-07-14T04:57:21.975Z,100.00
2023-07-14T04:59:58.542Z,100.00
2023-07-14T05:02:27.877Z,100.00
2023-07-14T05:05:19.494Z,100.00
2023-07-14T05:07:55.110Z,100.00
2023-07-14T05:10:30.530Z,100.00
2023-07-14T05:13:23.202Z,100.00
2023-07-14T05:16:17.560Z,100.00
2023-07-14T05:18:56.214Z,100.00
2023-07-14T05:21:30.691Z,100.00
2023-07-14T05:24:06.257Z,100.00
2023-07-14T05:26:37.450Z,100.00
2023-07-14T05:29:15.623Z,100.00
2023-07-14T05:31:56.186Z,100.00
2023-07-14T05:34:28.342Z,100.00
2023-07-14T05:37:00.204Z,100.00
2023-07-14T05:39:32.853Z,100.00
2023-07-14T05:42:06.114Z,100.00
2023-07-14T05:44:35.373Z,100.00
2023-07-14T05:47:07.265Z,100.00
2023-07-14T05:49:42.679Z,100.00
2023-07-14T05:52:16.792Z,100.00
2023-07-14T05:54:46.481Z,100.00
2023-07-14T05:57:24.348Z,100.00
2023-07-14T06:00:07.132Z,100.00
2023-07-14T06:03:00.839Z,100.00
2023-07-14T06:05:39.274Z,100.00
2023-07-14T06:08:24.867Z,100.00
2023-07-14T06:11:20.264Z,100.00
2023-07-14T06:13:49.595Z,100.00
2023-07-14T06:16:27.395Z,100.00
2023-07-14T06:18:59.375Z,100.00
2023-07-14T06:21:31.731Z,100.00
2023-07-14T06:24:15.540Z,100.00
2023-07-14T06:27:10.043Z,100.00
2023-07-14T06:29:47.501Z,100.00
2023-07-14T06:32:19.691Z,100.00
2023-07-14T06:35:02.149Z,100.00
2023-07-14T06:37:36.406Z,100.00
2023-07-14T06:40:07.084Z,100.00
2023-07-14T06:42:45.004Z,100.00
2023-07-14T06:45:20.178Z,100.00
2023-07-14T06:47:49.596Z,100.00
2023-07-14T06:50:26.241Z,100.00
2023-07-14T06:52:56.799Z,100.00
2023-07-14T06:55:28.348Z,100.00
2023-07-14T06:58:48.707Z,100.00
2023-07-14T07:01:21.336Z,100.00
2023-07-14T07:03:55.566Z,100.00
2023-07-14T07:06:25.135Z,100.00
2023-07-14T07:09:00.491Z,100.00
2023-07-14T07:11:36.294Z,100.00
2023-07-14T07:14:26.100Z,100.00
2023-07-14T07:16:56.048Z,100.00
2023-07-14T07:19:26.422Z,100.00
2023-07-14T07:22:07.145Z,100.00
2023-07-14T07:24:43.149Z,100.00
2023-07-14T07:27:14.462Z,100.00
2023-07-14T07:29:44.967Z,100.00
2023-07-14T07:32:36.721Z,100.00
2023-07-14T07:35:21.362Z,100.00
2023-07-14T07:37:57.682Z,100.00
2023-07-14T07:40:31.774Z,100.00
2023-07-14T07:43:09.265Z,100.00
2023-07-14T07:45:51.120Z,100.00
2023-07-14T07:48:20.465Z,100.00
2023-07-14T07:50:49.714Z,100.00
2023-07-14T07:53:23.316Z,100.00
2023-07-14T07:55:56.946Z,100.00
2023-07-14T07:58:26.918Z,100.00
2023-07-14T08:01:03.185Z,100.00
2023-07-14T08:03:33.429Z,100.00
2023-07-14T08:06:05.043Z,100.00
2023-07-14T08:08:38.028Z,100.00
2023-07-14T08:11:21.864Z,100.00
2023-07-14T08:13:53.569Z,100.00
2023-07-14T08:16:27.708Z,100.00
2023-07-14T08:18:57.159Z,100.00
2023-07-14T08:21:30.874Z,100.00
2023-07-14T08:24:03.604Z,100.00
2023-07-14T08:26:36.453Z,100.00
2023-07-14T08:29:09.732Z,100.00
2023-07-14T08:31:46.356Z,100.00
2023-07-14T08:34:15.562Z,100.00
2023-07-14T08:36:51.330Z,100.00
2023-07-14T08:39:21.318Z,100.00
2023-07-14T08:42:00.684Z,100.00
2023-07-14T08:45:14.080Z,100.00
2023-07-14T08:47:49.042Z,100.00
2023-07-14T08:50:26.892Z,100.00
2023-07-14T08:53:06.711Z,100.00
2023-07-14T08:55:44.806Z,100.00
2023-07-14T08:58:27.410Z,100.00
2023-07-14T09:01:12.954Z,100.00
2023-07-14T09:03:55.856Z,100.00
2023-07-14T09:06:40.387Z,100.00
2023-07-14T09:09:46.103Z,100.00
2023-07-14T09:12:26.961Z,100.00
2023-07-14T09:15:08.007Z,100.00
2023-07-14T09:17:52.671Z,100.00
2023-07-14T09:20:51.001Z,100.00
2023-07-14T09:23:26.343Z,100.00
2023-07-14T09:29:50.658Z,100.00
2023-07-14T09:32:26.381Z,100.00
2023-07-14T09:35:10.143Z,100.00
2023-07-14T09:37:52.585Z,100.00
2023-07-14T09:40:37.438Z,100.00
2023-07-14T09:43:08.419Z,100.00
2023-07-14T09:45:46.688Z,100.00
2023-07-14T09:48:31.436Z,100.00
2023-07-14T09:51:12.095Z,100.00
2023-07-14T09:54:02.100Z,100.00
2023-07-14T09:56:42.359Z,100.00
2023-07-14T09:59:25.379Z,100.00
2023-07-14T10:01:58.991Z,100.00
2023-07-14T10:04:34.330Z,100.00
2023-07-14T10:07:33.754Z,100.00
2023-07-14T10:10:17.283Z,100.00
2023-07-14T10:12:56.335Z,100.00
2023-07-14T10:15:27.888Z,100.00
2023-07-14T10:18:10.120Z,100.00
2023-07-14T10:20:42.136Z,100.00
2023-07-14T10:23:21.478Z,100.00
2023-07-14T10:25:56.742Z,100.00
2023-07-14T10:28:49.637Z,100.00
2023-07-14T10:31:39.425Z,100.00
2023-07-14T10:34:31.203Z,100.00
2023-07-14T10:37:06.627Z,100.00
2023-07-14T10:39:55.392Z,100.00
2023-07-14T10:42:36.892Z,100.00
2023-07-14T10:45:16.031Z,100.00
2023-07-14T10:48:18.800Z,100.00
2023-07-14T10:50:59.331Z,100.00
2023-07-14T10:53:51.597Z,100.00
2023-07-14T10:56:36.675Z,100.00
2023-07-14T10:59:20.407Z,100.00
2023-07-14T11:02:22.215Z,100.00
2023-07-14T11:05:05.708Z,100.00
2023-07-14T11:07:39.779Z,100.00
2023-07-14T11:10:35.313Z,100.00
2023-07-14T11:13:25.505Z,100.00
2023-07-14T11:16:07.347Z,100.00
2023-07-14T11:19:09.001Z,100.00
2023-07-14T11:21:57.389Z,100.00
2023-07-14T11:28:13.302Z,100.00
2023-07-14T11:30:59.226Z,100.00
2023-07-14T11:34:16.212Z,100.00
2023-07-14T11:37:11.277Z,100.00
2023-07-14T11:40:02.363Z,100.00
2023-07-14T11:42:46.218Z,100.00
2023-07-14T11:45:43.991Z,100.00
2023-07-14T11:48:41.097Z,100.00
2023-07-14T11:51:24.856Z,100.00
2023-07-14T11:54:29.100Z,100.00
2023-07-14T11:57:15.614Z,100.00
2023-07-14T12:00:25.521Z,100.00
2023-07-14T12:03:54.698Z,100.00
2023-07-14T12:07:13.274Z,100.00
2023-07-14T12:10:02.689Z,100.00
2023-07-14T12:12:35.378Z,100.00
2023-07-14T12:15:26.556Z,100.00
2023-07-14T12:17:55.800Z,100.00
2023-07-14T12:20:33.555Z,100.00
2023-07-14T12:23:47.319Z,100.00
2023-07-14T12:26:55.722Z,100.00
2023-07-14T12:29:44.368Z,100.00
2023-07-14T12:32:24.686Z,100.00
2023-07-14T12:34:53.901Z,100.00
2023-07-14T12:37:24.221Z,100.00
2023-07-14T12:39:55.551Z,100.00
2023-07-14T12:42:24.692Z,100.00
2023-07-14T12:45:00.873Z,100.00
2023-07-14T12:47:34.312Z,100.00
2023-07-14T12:50:04.240Z,100.00
2023-07-14T12:53:19.139Z,100.00
2023-07-14T12:55:47.226Z,100.00
2023-07-14T12:58:34.347Z,100.00
2023-07-14T13:01:07.765Z,100.00
2023-07-14T13:03:45.161Z,100.00
2023-07-14T13:06:29.013Z,100.00
2023-07-14T13:09:15.432Z,100.00
2023-07-14T13:11:55.468Z,100.00
2023-07-14T13:14:29.459Z,100.00
2023-07-14T13:17:00.460Z,100.00
2023-07-14T13:19:47.559Z,100.00
2023-07-14T13:22:41.401Z,100.00
2023-07-14T13:25:21.999Z,100.00
2023-07-14T13:27:55.196Z,100.00
2023-07-14T13:30:34.621Z,100.00
2023-07-14T13:33:18.814Z,100.00
2023-07-14T13:35:58.385Z,100.00
2023-07-14T13:38:51.935Z,100.00
2023-07-14T13:41:27.251Z,100.00
2023-07-14T13:44:56.575Z,100.00
2023-07-14T13:47:47.727Z,100.00
2023-07-14T13:51:04.777Z,100.00
2023-07-14T13:53:35.196Z,100.00
2023-07-14T13:56:50.194Z,100.00
2023-07-14T14:00:14.418Z,100.00
2023-07-14T14:03:02.604Z,100.00
2023-07-14T14:05:52.343Z,100.00
2023-07-14T14:08:21.594Z,100.00
2023-07-14T14:10:51.323Z,100.00
2023-07-14T14:13:23.280Z,100.00
2023-07-14T14:15:55.550Z,100.00
2023-07-14T14:18:42.545Z,100.00
2023-07-14T14:21:19.474Z,100.00
2023-07-14T14:24:01.301Z,100.00
2023-07-14T14:26:30.664Z,100.00
2023-07-14T14:28:59.760Z,100.00
2023-07-14T14:31:39.301Z,100.00
2023-07-14T14:34:18.610Z,100.00
2023-07-14T14:36:47.831Z,100.00
2023-07-14T14:39:23.464Z,100.00
2023-07-14T14:41:54.203Z,100.00
2023-07-14T14:44:25.083Z,100.00
2023-07-14T14:46:57.266Z,100.00
2023-07-14T14:49:26.547Z,100.00
2023-07-14T14:51:56.869Z,100.00
2023-07-14T14:54:31.602Z,100.00
2023-07-14T14:57:17.676Z,100.00
2023-07-14T14:59:54.147Z,100.00
2023-07-14T15:02:27.856Z,100.00
2023-07-14T15:05:35.273Z,100.00
2023-07-14T15:09:18.550Z,100.00
2023-07-14T15:11:19.839Z,100.00
2023-07-14T15:13:55.964Z,100.00
2023-07-14T15:16:25.271Z,100.00
2023-07-14T15:19:00.417Z,100.00
2023-07-14T15:21:30.251Z,100.00
2023-07-14T15:24:00.531Z,100.00
2023-07-14T15:26:49.350Z,100.00
2023-07-14T15:29:25.073Z,100.00
2023-07-14T15:32:30.345Z,100.00
2023-07-14T15:36:02.280Z,100.00
2023-07-14T15:39:13.609Z,100.00
2023-07-14T15:45:29.034Z,100.00
2023-07-14T15:48:01.150Z,100.00
2023-07-14T15:51:13.050Z,100.00
2023-07-14T15:53:50.127Z,100.00
2023-07-14T15:56:25.229Z,100.00
2023-07-14T15:58:58.159Z,100.00
2023-07-14T16:01:32.098Z,100.00
2023-07-14T16:04:03.702Z,100.00
2023-07-14T16:06:40.587Z,100.00
2023-07-14T16:09:22.531Z,100.00
2023-07-14T16:12:15.956Z,100.00
2023-07-14T16:14:48.029Z,100.00
2023-07-14T16:17:17.258Z,100.00
2023-07-14T16:19:48.894Z,100.00
2023-07-14T16:22:24.944Z,100.00
2023-07-14T16:24:54.327Z,100.00
2023-07-14T16:30:45.581Z,100.00
2023-07-14T16:33:14.825Z,100.00
2023-07-14T16:36:15.875Z,100.00
2023-07-14T16:39:41.539Z,100.00
2023-07-14T16:42:31.619Z,100.00
2023-07-14T16:45:04.563Z,100.00
2023-07-14T17:03:35.352Z,100.00
2023-07-14T17:06:46.243Z,100.00
2023-07-14T17:09:26.889Z,100.00
2023-07-14T17:12:15.450Z,100.00
2023-07-14T17:17:49.297Z,100.00
2023-07-14T17:18:57.060Z,100.00
2023-07-14T17:21:37.004Z,100.00
2023-07-14T17:24:39.919Z,100.00
2023-07-14T17:27:23.499Z,100.00
2023-07-14T17:29:59.661Z,100.00
2023-07-14T17:32:30.615Z,100.00
2023-07-14T17:34:59.633Z,100.00
2023-07-14T17:37:30.460Z,100.00
2023-07-14T17:40:02.735Z,100.00
2023-07-14T17:42:31.930Z,100.00
2023-07-14T17:45:01.003Z,100.00
2023-07-14T17:47:30.706Z,100.00
2023-07-14T17:50:02.828Z,100.00
2023-07-14T17:52:32.188Z,100.00
2023-07-14T17:55:08.857Z,100.00
2023-07-14T17:57:38.693Z,100.00
2023-07-14T18:00:08.488Z,100.00
2023-07-14T18:02:39.982Z,100.00
2023-07-14T18:05:30.154Z,100.00
2023-07-14T18:08:00.912Z,100.00
2023-07-14T18:10:31.766Z,100.00
2023-07-14T18:13:13.418Z,100.00
2023-07-14T18:16:23.776Z,100.00
2023-07-14T18:18:59.123Z,100.00
2023-07-14T18:21:34.106Z,100.00
2023-07-14T18:24:37.630Z,100.00
2023-07-14T18:27:19.436Z,100.00
2023-07-14T18:29:48.674Z,100.00
2023-07-14T18:32:18.034Z,100.00
2023-07-14T18:35:08.683Z,100.00
2023-07-14T18:37:50.854Z,100.00
2023-07-14T18:40:27.633Z,100.00
2023-07-14T18:45:56.133Z,100.00
2023-07-14T18:48:29.947Z,100.00
2023-07-14T18:51:29.776Z,100.00
2023-07-14T18:54:18.503Z,100.00
2023-07-14T18:56:53.816Z,100.00
2023-07-14T18:59:23.199Z,99.85
2023-07-14T19:01:52.788Z,100.00
2023-07-14T19:04:22.582Z,100.00
2023-07-14T19:07:00.102Z,97.88
2023-07-14T19:09:35.820Z,91.23
2023-07-14T19:12:07.707Z,83.97
2023-07-14T19:14:39.949Z,88.33
2023-07-14T19:17:22.071Z,85.42
2023-07-14T19:20:01.480Z,84.19
2023-07-14T19:22:36.582Z,80.29
2023-07-14T19:26:13.022Z,79.36
2023-07-14T19:28:54.264Z,78.53
2023-07-14T19:31:47.102Z,77.61
2023-07-14T19:34:47.088Z,71.68
2023-07-14T19:37:53.324Z,71.17
2023-07-14T19:40:35.303Z,64.34
2023-07-14T19:43:38.742Z,66.49
2023-07-14T19:46:15.465Z,66.05
2023-07-14T19:49:12.622Z,64.07
2023-07-14T19:51:46.657Z,64.45
2023-07-14T19:54:43.944Z,65.87
2023-07-14T19:57:21.613Z,65.20
2023-07-14T20:00:00.674Z,64.12
2023-07-14T20:02:31.171Z,65.73
2023-07-14T20:05:04.158Z,60.10
2023-07-14T20:07:34.279Z,62.58
2023-07-14T20:10:23.403Z,62.10
2023-07-14T20:13:52.394Z,59.94
2023-07-14T20:16:23.027Z,62.13
2023-07-14T20:18:52.618Z,59.45
2023-07-14T20:21:38.176Z,57.16
2023-07-14T20:24:23.372Z,55.23
2023-07-14T20:26:57.619Z,54.91
2023-07-14T20:29:26.894Z,57.20
2023-07-14T20:32:01.723Z,55.71
2023-07-14T20:34:30.996Z,54.92
2023-07-14T20:37:03.144Z,58.03
2023-07-14T20:39:41.390Z,58.47
2023-07-14T20:42:19.769Z,58.21
2023-07-14T20:44:51.664Z,59.63
2023-07-14T20:47:23.220Z,57.21
2023-07-14T20:49:52.525Z,54.31
2023-07-14T20:52:30.772Z,58.04
2023-07-14T20:55:04.914Z,57.37
2023-07-14T20:57:42.212Z,54.98
2023-07-14T21:00:26.496Z,56.74
2023-07-14T21:02:56.083Z,53.80
2023-07-14T21:05:29.784Z,53.00
2023-07-14T21:08:10.064Z,55.14
2023-07-14T21:10:47.699Z,53.98
2023-07-14T21:13:25.322Z,56.10
2023-07-14T21:15:57.621Z,54.32
2023-07-14T21:18:44.600Z,52.96
2023-07-14T21:21:35.488Z,53.90
2023-07-14T21:24:22.396Z,53.38
2023-07-14T21:27:16.465Z,54.48
2023-07-14T21:29:53.628Z,52.51
2023-07-14T21:32:49.665Z,54.85
2023-07-14T21:35:36.848Z,58.66
2023-07-14T21:38:17.157Z,61.15
2023-07-14T21:41:05.047Z,58.06
2023-07-14T21:43:42.936Z,56.39
2023-07-14T21:46:25.454Z,55.59
2023-07-14T21:48:55.261Z,55.16
2023-07-14T21:51:31.951Z,53.64
2023-07-14T21:54:38.318Z,58.60
2023-07-14T21:57:12.207Z,56.16
2023-07-14T21:59:50.490Z,56.97
2023-07-14T22:02:24.101Z,56.71
2023-07-14T22:05:01.774Z,57.08
2023-07-14T22:07:33.811Z,56.50
2023-07-14T22:10:07.108Z,54.49
2023-07-14T22:12:39.268Z,56.72
2023-07-14T22:15:24.505Z,55.18
2023-07-14T22:18:00.382Z,57.08
2023-07-14T22:20:30.690Z,58.71
2023-07-14T22:23:06.200Z,57.00
2023-07-14T22:25:38.245Z,54.37
2023-07-14T22:28:13.738Z,56.01
2023-07-14T22:30:50.233Z,55.76
2023-07-14T22:33:37.765Z,56.54
2023-07-14T22:36:15.715Z,55.64
2023-07-14T22:38:54.686Z,56.65
2023-07-14T22:41:36.821Z,55.84
2023-07-14T22:44:06.728Z,60.73
2023-07-14T22:46:47.742Z,55.77
2023-07-14T22:49:23.140Z,54.52
2023-07-14T22:51:55.787Z,50.45
2023-07-14T22:54:34.141Z,57.90
2023-07-14T22:57:06.087Z,61.45
2023-07-14T22:59:37.136Z,61.27
2023-07-14T23:02:06.700Z,54.12
2023-07-14T23:04:35.968Z,51.67
2023-07-14T23:07:07.038Z,51.97
2023-07-14T23:09:47.308Z,50.96
2023-07-14T23:12:23.656Z,51.28
2023-07-14T23:14:54.750Z,53.13
2023-07-14T23:17:27.761Z,48.83
2023-07-14T23:20:15.185Z,49.31
2023-07-14T23:22:47.029Z,47.00
2023-07-14T23:25:50.504Z,47.06
2023-07-14T23:28:26.041Z,46.94
2023-07-14T23:30:57.860Z,47.86
2023-07-14T23:33:26.903Z,47.46
2023-07-14T23:35:58.494Z,47.78
2023-07-14T23:38:27.879Z,48.37
2023-07-14T23:40:57.237Z,45.40
2023-07-14T23:43:32.367Z,46.42
2023-07-14T23:46:17.883Z,43.95
2023-07-14T23:48:47.326Z,43.81
2023-07-14T23:51:19.154Z,43.45
2023-07-14T23:53:57.474Z,41.96
2023-07-14T23:56:43.180Z,43.84
2023-07-14T23:59:18.697Z,46.18
